createdAt,value
2016-06-10T00:00:07.377Z,14.84
2016-06-10T00:01:07.192Z,14.72
2016-06-10T00:02:07.320Z,14.72
2016-06-10T00:03:07.151Z,14.69
2016-06-10T00:04:07.279Z,14.73
2016-06-10T00:05:07.267Z,14.7
2016-06-10T00:06:07.240Z,14.72
2016-06-10T00:07:07.226Z,14.66
2016-06-10T00:08:07.199Z,14.69
2016-06-10T00:09:07.499Z,14.68
2016-06-10T00:10:07.158Z,14.68
2016-06-10T00:11:07.145Z,14.68
2016-06-10T00:12:07.117Z,14.65
2016-06-10T00:13:07.104Z,14.68
2016-06-10T00:14:06.920Z,14.66
2016-06-10T00:15:07.048Z,14.58
2016-06-10T00:16:07.035Z,14.55
2016-06-10T00:17:07.023Z,14.55
2016-06-10T00:18:06.995Z,14.48
2016-06-10T00:19:06.967Z,14.54
2016-06-10T00:20:06.953Z,14.55
2016-06-10T00:21:06.925Z,14.47
2016-06-10T00:22:06.898Z,14.51
2016-06-10T00:23:06.885Z,14.48
2016-06-10T00:24:07.356Z,14.48
2016-06-10T00:25:06.844Z,14.45
2016-06-10T00:26:06.832Z,14.47
2016-06-10T00:27:06.804Z,14.43
2016-06-10T00:28:06.775Z,14.4
2016-06-10T00:29:06.763Z,14.45
2016-06-10T00:30:06.734Z,14.37
2016-06-10T00:31:06.706Z,14.35
2016-06-10T00:32:06.694Z,14.41
2016-06-10T00:33:06.665Z,14.37
2016-06-10T00:34:06.653Z,14.32
2016-06-10T00:35:06.625Z,14.37
2016-06-10T00:36:06.597Z,14.32
2016-06-10T00:37:06.585Z,14.33
2016-06-10T00:38:06.556Z,14.33
2016-06-10T00:39:06.544Z,14.36
2016-06-10T00:40:06.969Z,14.23
2016-06-10T00:41:06.503Z,14.32
2016-06-10T00:42:06.475Z,14.32
2016-06-10T00:43:06.446Z,14.26
2016-06-10T00:44:06.435Z,14.23
2016-06-10T00:45:06.405Z,14.2
2016-06-10T00:46:06.393Z,14.25
2016-06-10T00:47:06.366Z,14.23
2016-06-10T00:48:06.353Z,14.15
2016-06-10T00:49:06.325Z,14.1
2016-06-10T00:50:06.295Z,14.11
2016-06-10T00:51:06.284Z,14.12
2016-06-10T00:52:06.256Z,14.11
2016-06-10T00:53:06.227Z,14.11
2016-06-10T00:54:06.215Z,14.11
2016-06-10T00:55:06.686Z,14.15
2016-06-10T00:56:06.174Z,14.07
2016-06-10T00:57:06.146Z,14.08
2016-06-10T00:58:06.133Z,14.08
2016-06-10T00:59:06.105Z,13.99
2016-06-10T01:00:06.077Z,14.05
2016-06-10T01:01:06.065Z,13.97
2016-06-10T01:02:06.037Z,14
2016-06-10T01:03:06.024Z,14.03
2016-06-10T01:04:05.996Z,13.99
2016-06-10T01:05:05.999Z,14.07
2016-06-10T01:06:05.970Z,13.99
2016-06-10T01:07:05.942Z,14.03
2016-06-10T01:08:05.914Z,14.07
2016-06-10T01:09:05.886Z,13.97
2016-06-10T01:10:05.873Z,13.96
2016-06-10T01:11:05.846Z,13.96
2016-06-10T01:12:05.818Z,13.97
2016-06-10T01:13:05.805Z,13.96
2016-06-10T01:14:05.777Z,14
2016-06-10T01:15:05.764Z,13.99
2016-06-10T01:16:05.736Z,13.92
2016-06-10T01:17:05.708Z,13.89
2016-06-10T01:18:05.695Z,13.9
2016-06-10T01:19:05.667Z,13.89
2016-06-10T01:20:05.654Z,13.85
2016-06-10T01:21:05.627Z,13.86
2016-06-10T01:22:05.598Z,13.81
2016-06-10T01:23:05.585Z,13.75
2016-06-10T01:24:05.557Z,13.87
2016-06-10T01:25:05.545Z,13.86
2016-06-10T01:26:05.516Z,13.75
2016-06-10T01:27:05.489Z,13.77
2016-06-10T01:28:05.475Z,13.78
2016-06-10T01:29:05.448Z,13.81
2016-06-10T01:30:05.434Z,13.7
2016-06-10T01:31:05.407Z,13.77
2016-06-10T01:32:05.378Z,13.71
2016-06-10T01:33:05.366Z,13.68
2016-06-10T01:34:05.338Z,13.81
2016-06-10T01:35:05.325Z,13.72
2016-06-10T01:36:05.297Z,13.71
2016-06-10T01:37:05.270Z,13.7
2016-06-10T01:38:05.256Z,13.72
2016-06-10T01:39:05.243Z,13.71
2016-06-10T01:40:05.294Z,13.72
2016-06-10T01:41:05.188Z,13.63
2016-06-10T01:42:05.159Z,13.65
2016-06-10T01:43:05.147Z,13.65
2016-06-10T01:44:05.119Z,13.71
2016-06-10T01:45:05.106Z,13.74
2016-06-10T01:46:05.078Z,13.68
2016-06-10T01:47:05.112Z,13.75
2016-06-10T01:48:05.037Z,13.62
2016-06-10T01:49:05.009Z,13.74
2016-06-10T01:50:04.980Z,13.67
2016-06-10T01:51:04.983Z,13.62
2016-06-10T01:52:04.941Z,13.67
2016-06-10T01:53:04.928Z,13.67
2016-06-10T01:54:04.914Z,13.6
2016-06-10T01:55:04.903Z,13.59
2016-06-10T01:56:04.859Z,13.62
2016-06-10T01:57:04.830Z,13.59
2016-06-10T01:58:04.818Z,13.57
2016-06-10T01:59:04.790Z,13.57
2016-06-10T02:00:04.761Z,13.6
2016-06-10T02:01:04.749Z,13.47
2016-06-10T02:02:04.721Z,13.54
2016-06-10T02:03:04.708Z,13.56
2016-06-10T02:04:04.680Z,13.5
2016-06-10T02:05:04.651Z,13.47
2016-06-10T02:06:04.640Z,13.49
2016-06-10T02:07:04.611Z,13.49
2016-06-10T02:08:04.583Z,13.47
2016-06-10T02:09:04.586Z,13.46
2016-06-10T02:10:04.760Z,13.49
2016-06-10T02:11:04.374Z,13.53
2016-06-10T02:12:04.501Z,13.5
2016-06-10T02:13:04.473Z,13.47
2016-06-10T02:14:04.461Z,13.44
2016-06-10T02:15:04.432Z,13.47
2016-06-10T02:16:04.420Z,13.46
2016-06-10T02:17:04.392Z,13.47
2016-06-10T02:18:04.364Z,13.5
2016-06-10T02:19:04.351Z,13.49
2016-06-10T02:20:04.322Z,13.49
2016-06-10T02:21:04.310Z,13.5
2016-06-10T02:22:04.282Z,13.49
2016-06-10T02:23:04.254Z,13.47
2016-06-10T02:24:04.241Z,13.42
2016-06-10T02:25:04.713Z,13.41
2016-06-10T02:26:04.873Z,13.39
2016-06-10T02:27:04.173Z,13.41
2016-06-10T02:28:04.144Z,13.42
2016-06-10T02:29:04.132Z,13.35
2016-06-10T02:30:04.103Z,13.46
2016-06-10T02:31:04.092Z,13.47
2016-06-10T02:32:04.063Z,13.47
2016-06-10T02:33:04.034Z,13.42
2016-06-10T02:34:04.007Z,13.42
2016-06-10T02:35:03.994Z,13.41
2016-06-10T02:36:03.965Z,13.39
2016-06-10T02:37:03.937Z,13.38
2016-06-10T02:38:03.941Z,13.41
2016-06-10T02:39:03.951Z,13.35
2016-06-10T02:40:03.819Z,13.39
2016-06-10T02:41:03.970Z,13.38
2016-06-10T02:42:04.011Z,13.39
2016-06-10T02:43:04.010Z,13.39
2016-06-10T02:44:03.995Z,13.39
2016-06-10T02:45:04.012Z,13.37
2016-06-10T02:46:03.982Z,13.31
2016-06-10T02:47:03.968Z,13.28
2016-06-10T02:48:03.964Z,13.3
2016-06-10T02:49:03.941Z,13.25
2016-06-10T02:50:03.919Z,13.28
2016-06-10T02:51:03.910Z,13.28
2016-06-10T02:52:03.887Z,13.22
2016-06-10T02:53:03.862Z,13.2
2016-06-10T02:54:03.851Z,13.19
2016-06-10T02:55:03.669Z,13.23
2016-06-10T02:56:04.580Z,13.22
2016-06-10T02:57:03.788Z,13.2
2016-06-10T02:58:03.777Z,13.18
2016-06-10T02:59:03.749Z,13.19
2016-06-10T03:00:03.722Z,13.2
2016-06-10T03:01:03.710Z,13.16
2016-06-10T03:02:03.683Z,13.13
2016-06-10T03:03:03.656Z,13.12
2016-06-10T03:04:03.642Z,13.15
2016-06-10T03:05:03.614Z,13.16
2016-06-10T03:06:03.587Z,13.05
2016-06-10T03:07:03.573Z,13
2016-06-10T03:08:03.546Z,13.01
2016-06-10T03:09:03.549Z,12.98
2016-06-10T03:10:03.520Z,13.01
2016-06-10T03:11:04.086Z,12.97
2016-06-10T03:12:03.464Z,12.85
2016-06-10T03:13:03.436Z,12.91
2016-06-10T03:14:03.407Z,12.98
2016-06-10T03:15:03.396Z,12.9
2016-06-10T03:16:03.367Z,12.91
2016-06-10T03:17:03.338Z,12.95
2016-06-10T03:18:03.327Z,12.95
2016-06-10T03:19:03.344Z,12.93
2016-06-10T03:20:03.269Z,12.91
2016-06-10T03:21:03.272Z,12.82
2016-06-10T03:22:03.229Z,12.83
2016-06-10T03:23:03.201Z,12.85
2016-06-10T03:24:03.187Z,12.82
2016-06-10T03:25:03.410Z,12.79
2016-06-10T03:26:03.148Z,12.8
2016-06-10T03:27:03.119Z,12.76
2016-06-10T03:28:03.091Z,12.78
2016-06-10T03:29:03.078Z,12.72
2016-06-10T03:30:03.050Z,12.67
2016-06-10T03:31:03.039Z,12.7
2016-06-10T03:32:03.009Z,12.65
2016-06-10T03:33:02.981Z,12.61
2016-06-10T03:34:02.954Z,12.61
2016-06-10T03:35:02.940Z,12.65
2016-06-10T03:36:02.928Z,12.62
2016-06-10T03:37:02.885Z,12.61
2016-06-10T03:38:02.872Z,12.64
2016-06-10T03:39:02.844Z,12.68
2016-06-10T03:40:02.831Z,12.6
2016-06-10T03:41:03.475Z,12.58
2016-06-10T03:42:02.775Z,12.61
2016-06-10T03:43:02.763Z,12.61
2016-06-10T03:44:02.734Z,12.65
2016-06-10T03:45:02.722Z,12.61
2016-06-10T03:46:02.694Z,12.64
2016-06-10T03:47:02.665Z,12.62
2016-06-10T03:48:02.637Z,12.61
2016-06-10T03:49:02.625Z,12.68
2016-06-10T03:50:02.597Z,12.64
2016-06-10T03:51:02.568Z,12.61
2016-06-10T03:52:02.556Z,12.64
2016-06-10T03:53:02.371Z,12.61
2016-06-10T03:54:02.515Z,12.62
2016-06-10T03:55:02.487Z,12.67
2016-06-10T03:56:02.958Z,12.61
2016-06-10T03:57:02.447Z,12.61
2016-06-10T03:58:02.418Z,12.72
2016-06-10T03:59:02.390Z,12.68
2016-06-10T04:00:02.377Z,12.7
2016-06-10T04:01:02.349Z,12.76
2016-06-10T04:02:02.321Z,12.68
2016-06-10T04:03:02.307Z,12.82
2016-06-10T04:04:02.280Z,12.79
2016-06-10T04:05:02.252Z,12.85
2016-06-10T04:06:02.239Z,12.82
2016-06-10T04:07:02.211Z,12.87
2016-06-10T04:08:02.183Z,12.93
2016-06-10T04:09:02.170Z,12.95
2016-06-10T04:10:02.173Z,12.95
2016-06-10T04:11:02.145Z,12.9
2016-06-10T04:12:02.101Z,12.91
2016-06-10T04:13:02.089Z,13.01
2016-06-10T04:14:02.061Z,13
2016-06-10T04:15:01.876Z,13.11
2016-06-10T04:16:02.020Z,13.13
2016-06-10T04:17:02.007Z,13.16
2016-06-10T04:18:01.979Z,13.19
2016-06-10T04:19:02.092Z,13.2
2016-06-10T04:20:01.923Z,13.27
2016-06-10T04:21:01.910Z,13.39
2016-06-10T04:22:01.883Z,13.41
2016-06-10T04:23:01.994Z,13.41
2016-06-10T04:24:02.092Z,13.42
2016-06-10T04:25:01.813Z,13.44
2016-06-10T04:26:02.520Z,13.49
2016-06-10T04:27:01.867Z,13.5
2016-06-10T04:28:02.026Z,13.47
2016-06-10T04:29:01.732Z,13.47
2016-06-10T04:30:01.704Z,13.6
2016-06-10T04:31:01.691Z,13.52
2016-06-10T04:32:01.507Z,13.6
2016-06-10T04:33:01.650Z,13.54
2016-06-10T04:34:01.622Z,13.65
2016-06-10T04:35:01.610Z,13.71
2016-06-10T04:36:01.581Z,13.75
2016-06-10T04:37:01.553Z,13.81
2016-06-10T04:38:01.540Z,13.89
2016-06-10T04:39:01.512Z,13.9
2016-06-10T04:40:01.500Z,13.9
2016-06-10T04:41:02.299Z,13.9
2016-06-10T04:42:01.460Z,14
2016-06-10T04:43:01.430Z,14
2016-06-10T04:44:01.419Z,14.04
2016-06-10T04:45:01.391Z,14.05
2016-06-10T04:46:01.362Z,14.11
2016-06-10T04:47:01.350Z,14.15
2016-06-10T04:48:01.165Z,14.26
2016-06-10T04:49:01.309Z,14.23
2016-06-10T04:50:01.281Z,14.25
2016-06-10T04:51:01.268Z,14.3
2016-06-10T04:52:01.240Z,14.32
2016-06-10T04:53:01.228Z,14.35
2016-06-10T04:54:01.199Z,14.33
2016-06-10T04:55:01.187Z,14.41
2016-06-10T04:56:01.299Z,14.35
2016-06-10T04:57:01.146Z,14.33
2016-06-10T04:58:01.118Z,14.44
2016-06-10T04:59:01.090Z,14.35
2016-06-10T05:00:01.077Z,14.37
2016-06-10T05:01:01.065Z,14.35
2016-06-10T05:02:01.036Z,14.36
2016-06-10T05:03:01.009Z,14.41
2016-06-10T05:04:00.995Z,14.4
2016-06-10T05:05:00.967Z,14.47
2016-06-10T05:06:00.955Z,14.51
2016-06-10T05:07:00.943Z,14.6
2016-06-10T05:08:00.914Z,14.53
2016-06-10T05:09:00.932Z,14.6
2016-06-10T05:10:00.874Z,14.59
2016-06-10T05:11:00.861Z,14.63
2016-06-10T05:12:00.832Z,14.68
2016-06-10T05:13:00.820Z,14.68
2016-06-10T05:14:00.808Z,14.69
2016-06-10T05:15:00.779Z,14.77
2016-06-10T05:16:00.767Z,14.77
2016-06-10T05:17:00.739Z,14.72
2016-06-10T05:18:00.726Z,14.78
2016-06-10T05:19:00.698Z,14.63
2016-06-10T05:20:00.514Z,14.6
2016-06-10T05:21:00.658Z,14.69
2016-06-10T05:22:00.629Z,14.6
2016-06-10T05:23:00.617Z,14.65
2016-06-10T05:24:00.604Z,14.72
2016-06-10T05:25:00.592Z,14.68
2016-06-10T05:26:01.126Z,14.72
2016-06-10T05:27:00.723Z,14.84
2016-06-10T05:28:00.523Z,14.85
2016-06-10T05:29:00.510Z,14.88
2016-06-10T05:30:00.482Z,15
2016-06-10T05:31:00.469Z,15.07
2016-06-10T05:32:00.441Z,15.06
2016-06-10T05:33:00.444Z,15.11
2016-06-10T05:34:00.416Z,15.17
2016-06-10T05:35:00.388Z,15.22
2016-06-10T05:36:00.376Z,15.21
2016-06-10T05:37:00.347Z,15.22
2016-06-10T05:38:00.319Z,15.28
2016-06-10T05:39:00.307Z,15.33
2016-06-10T05:40:00.294Z,15.33
2016-06-10T05:41:00.266Z,15.37
2016-06-10T05:42:00.253Z,15.47
2016-06-10T05:43:00.225Z,15.52
2016-06-10T05:44:00.213Z,15.57
2016-06-10T05:45:00.200Z,15.61
2016-06-10T05:46:00.171Z,15.83
2016-06-10T05:47:00.159Z,15.8
2016-06-10T05:47:59.974Z,15.88
2016-06-10T05:49:00.119Z,15.91
2016-06-10T05:50:00.091Z,15.98
2016-06-10T05:51:00.078Z,16.05
2016-06-10T05:52:00.064Z,16.12
2016-06-10T05:53:00.037Z,16.09
2016-06-10T05:54:00.024Z,16.24
2016-06-10T05:55:00.012Z,16.24
2016-06-10T05:55:59.999Z,16.29
2016-06-10T05:56:59.971Z,16.36
2016-06-10T05:57:59.958Z,16.36
2016-06-10T05:58:59.947Z,16.41
2016-06-10T05:59:59.918Z,16.38
2016-06-10T06:00:59.905Z,16.49
2016-06-10T06:01:59.908Z,16.49
2016-06-10T06:02:59.864Z,16.51
2016-06-10T06:03:59.852Z,16.64
2016-06-10T06:04:59.840Z,16.64
2016-06-10T06:05:59.810Z,16.58
2016-06-10T06:06:59.799Z,16.56
2016-06-10T06:07:59.786Z,16.53
2016-06-10T06:08:59.774Z,16.57
2016-06-10T06:09:59.761Z,16.57
2016-06-10T06:10:59.576Z,16.58
2016-06-10T06:11:59.720Z,16.68
2016-06-10T06:12:59.707Z,16.69
2016-06-10T06:13:59.680Z,16.75
2016-06-10T06:14:59.667Z,16.87
2016-06-10T06:15:59.655Z,16.9
2016-06-10T06:16:59.627Z,17.02
2016-06-10T06:17:59.614Z,17.06
2016-06-10T06:18:59.601Z,17.09
2016-06-10T06:19:59.589Z,17.23
2016-06-10T06:20:59.561Z,17.26
2016-06-10T06:21:59.392Z,17.39
2016-06-10T06:22:59.535Z,17.44
2016-06-10T06:23:59.523Z,17.34
2016-06-10T06:24:59.494Z,17.34
2016-06-10T06:25:59.872Z,17.36
2016-06-10T06:26:59.485Z,17.34
2016-06-10T06:27:59.458Z,17.45
2016-06-10T06:28:59.429Z,17.45
2016-06-10T06:29:59.416Z,17.48
2016-06-10T06:30:59.403Z,17.46
2016-06-10T06:31:59.391Z,17.63
2016-06-10T06:32:59.363Z,17.68
2016-06-10T06:33:59.351Z,17.78
2016-06-10T06:34:59.338Z,17.89
2016-06-10T06:35:59.325Z,17.9
2016-06-10T06:36:59.313Z,17.98
2016-06-10T06:37:59.284Z,17.9
2016-06-10T06:38:59.272Z,17.86
2016-06-10T06:39:59.259Z,17.76
2016-06-10T06:40:59.248Z,17.72
2016-06-10T06:42:00.187Z,17.79
2016-06-10T06:42:59.206Z,17.78
2016-06-10T06:43:59.194Z,17.83
2016-06-10T06:44:59.181Z,17.92
2016-06-10T06:45:59.169Z,17.8
2016-06-10T06:46:59.172Z,17.79
2016-06-10T06:47:59.144Z,17.79
2016-06-10T06:48:59.115Z,17.82
2016-06-10T06:49:59.103Z,17.72
2016-06-10T06:50:59.262Z,17.68
2016-06-10T06:51:59.078Z,17.74
2016-06-10T06:52:59.065Z,17.74
2016-06-10T06:53:59.052Z,17.87
2016-06-10T06:54:59.040Z,17.95
2016-06-10T06:55:59.027Z,17.83
2016-06-10T06:56:59.484Z,17.71
2016-06-10T06:57:58.987Z,17.74
2016-06-10T06:58:58.974Z,17.68
2016-06-10T06:59:58.945Z,17.7
2016-06-10T07:00:58.949Z,17.78
2016-06-10T07:01:58.921Z,17.82
2016-06-10T07:02:58.908Z,17.76
2016-06-10T07:03:58.896Z,17.82
2016-06-10T07:04:58.884Z,17.71
2016-06-10T07:05:58.855Z,17.72
2016-06-10T07:06:58.842Z,17.72
2016-06-10T07:07:58.831Z,17.8
2016-06-10T07:08:58.818Z,17.79
2016-06-10T07:09:58.805Z,17.82
2016-06-10T07:10:59.229Z,17.86
2016-06-10T07:11:59.014Z,17.97
2016-06-10T07:12:58.752Z,17.95
2016-06-10T07:13:58.739Z,18.04
2016-06-10T07:14:58.727Z,18.19
2016-06-10T07:15:58.714Z,18.26
2016-06-10T07:16:58.701Z,18.29
2016-06-10T07:17:58.689Z,18.28
2016-06-10T07:18:58.676Z,18.31
2016-06-10T07:19:58.663Z,18.38
2016-06-10T07:20:58.652Z,18.5
2016-06-10T07:21:58.701Z,18.55
2016-06-10T07:22:58.626Z,18.55
2016-06-10T07:23:58.613Z,18.47
2016-06-10T07:24:58.851Z,18.59
2016-06-10T07:25:58.589Z,18.74
2016-06-10T07:26:58.576Z,18.93
2016-06-10T07:27:58.563Z,18.96
2016-06-10T07:28:58.535Z,19.11
2016-06-10T07:29:58.523Z,19.26
2016-06-10T07:30:58.605Z,19.12
2016-06-10T07:31:58.497Z,19.21
2016-06-10T07:32:58.485Z,19.27
2016-06-10T07:33:58.473Z,19.33
2016-06-10T07:34:58.459Z,19.27
2016-06-10T07:35:58.462Z,19.31
2016-06-10T07:36:58.450Z,19.44
2016-06-10T07:37:58.423Z,19.49
2016-06-10T07:38:58.426Z,19.41
2016-06-10T07:39:58.897Z,19.44
2016-06-10T07:40:58.385Z,19.49
2016-06-10T07:41:58.372Z,19.73
2016-06-10T07:42:58.359Z,19.86
2016-06-10T07:43:58.363Z,19.94
2016-06-10T07:44:58.350Z,20.04
2016-06-10T07:45:58.322Z,20.09
2016-06-10T07:46:58.309Z,19.94
2016-06-10T07:47:58.296Z,19.95
2016-06-10T07:48:58.285Z,19.99
2016-06-10T07:49:58.271Z,19.99
2016-06-10T07:50:58.275Z,20.03
2016-06-10T07:51:58.246Z,20.14
2016-06-10T07:52:58.249Z,20.14
2016-06-10T07:53:58.237Z,20.14
2016-06-10T07:54:58.225Z,20.21
2016-06-10T07:55:58.212Z,20.11
2016-06-10T07:56:58.793Z,20.36
2016-06-10T07:57:58.031Z,20.6
2016-06-10T07:58:58.158Z,20.55
2016-06-10T07:59:58.161Z,20.6
2016-06-10T08:00:58.150Z,20.63
2016-06-10T08:01:58.153Z,20.74
2016-06-10T08:02:58.124Z,20.75
2016-06-10T08:03:58.112Z,20.93
2016-06-10T08:04:58.318Z,21.03
2016-06-10T08:05:58.087Z,21.25
2016-06-10T08:06:57.933Z,21.4
2016-06-10T08:07:58.077Z,21.61
2016-06-10T08:08:58.518Z,21.83
2016-06-10T08:09:58.052Z,21.91
2016-06-10T08:10:58.039Z,21.82
2016-06-10T08:11:58.042Z,21.7
2016-06-10T08:12:58.031Z,21.89
2016-06-10T08:13:58.018Z,22.06
2016-06-10T08:14:58.004Z,22.14
2016-06-10T08:15:58.008Z,22.26
2016-06-10T08:16:57.996Z,22.41
2016-06-10T08:17:57.982Z,22.57
2016-06-10T08:18:57.986Z,22.55
2016-06-10T08:19:57.973Z,22.6
2016-06-10T08:20:57.961Z,22.5
2016-06-10T08:21:58.120Z,22.47
2016-06-10T08:22:57.951Z,22.32
2016-06-10T08:23:58.392Z,22.43
2016-06-10T08:24:57.942Z,22.47
2016-06-10T08:25:57.929Z,22.38
2016-06-10T08:26:57.916Z,22.35
2016-06-10T08:27:57.904Z,22.44
2016-06-10T08:28:57.750Z,22.54
2016-06-10T08:29:57.894Z,22.66
2016-06-10T08:30:57.881Z,22.6
2016-06-10T08:31:57.870Z,22.44
2016-06-10T08:32:57.872Z,22.35
2016-06-10T08:33:57.859Z,22.45
2016-06-10T08:34:57.847Z,22.51
2016-06-10T08:35:57.851Z,22.51
2016-06-10T08:36:57.854Z,22.43
2016-06-10T08:37:57.825Z,22.38
2016-06-10T08:38:58.094Z,22.3
2016-06-10T08:39:57.800Z,22.15
2016-06-10T08:40:57.787Z,22.07
2016-06-10T08:41:57.791Z,21.96
2016-06-10T08:42:57.778Z,21.92
2016-06-10T08:43:57.765Z,21.95
2016-06-10T08:44:57.753Z,21.93
2016-06-10T08:45:57.740Z,21.92
2016-06-10T08:46:57.744Z,21.91
2016-06-10T08:47:57.731Z,21.73
2016-06-10T08:48:57.719Z,21.66
2016-06-10T08:49:57.706Z,21.64
2016-06-10T08:50:57.693Z,21.52
2016-06-10T08:51:57.696Z,21.36
2016-06-10T08:52:57.684Z,21.45
2016-06-10T08:53:57.671Z,21.42
2016-06-10T08:54:57.660Z,21.36
2016-06-10T08:55:57.647Z,21.48
2016-06-10T08:56:57.477Z,21.54
2016-06-10T08:57:57.622Z,21.72
2016-06-10T08:58:57.625Z,21.93
2016-06-10T08:59:57.596Z,22.14
2016-06-10T09:00:57.599Z,22.25
2016-06-10T09:01:57.587Z,22.44
2016-06-10T09:02:57.574Z,22.48
2016-06-10T09:03:57.562Z,22.7
2016-06-10T09:04:57.393Z,22.88
2016-06-10T09:05:57.537Z,23.2
2016-06-10T09:06:57.540Z,23.34
2016-06-10T09:07:57.527Z,23.5
2016-06-10T09:08:57.514Z,23.48
2016-06-10T09:09:57.501Z,23.66
2016-06-10T09:10:57.504Z,23.66
2016-06-10T09:11:57.351Z,23.58
2016-06-10T09:12:57.479Z,23.61
2016-06-10T09:13:57.468Z,23.65
2016-06-10T09:14:57.471Z,23.62
2016-06-10T09:15:57.457Z,23.69
2016-06-10T09:16:57.445Z,23.8
2016-06-10T09:17:57.433Z,23.8
2016-06-10T09:18:57.436Z,23.69
2016-06-10T09:19:57.423Z,23.77
2016-06-10T09:20:57.426Z,23.88
2016-06-10T09:21:57.413Z,23.98
2016-06-10T09:22:57.401Z,23.83
2016-06-10T09:23:57.405Z,23.66
2016-06-10T09:24:57.392Z,23.68
2016-06-10T09:25:57.380Z,23.61
2016-06-10T09:26:57.429Z,23.54
2016-06-10T09:27:57.401Z,23.46
2016-06-10T09:28:57.356Z,23.5
2016-06-10T09:29:57.360Z,23.43
2016-06-10T09:30:57.332Z,23.47
2016-06-10T09:31:57.398Z,23.43
2016-06-10T09:32:57.323Z,23.41
2016-06-10T09:33:57.169Z,23.39
2016-06-10T09:34:57.313Z,23.23
2016-06-10T09:35:57.300Z,23.28
2016-06-10T09:36:57.303Z,23.02
2016-06-10T09:37:57.291Z,23.21
2016-06-10T09:38:57.278Z,23.21
2016-06-10T09:39:57.282Z,23.54
2016-06-10T09:40:57.269Z,23.68
2016-06-10T09:41:57.272Z,23.66
2016-06-10T09:42:57.682Z,23.71
2016-06-10T09:43:57.247Z,23.98
2016-06-10T09:44:57.234Z,23.99
2016-06-10T09:45:57.237Z,23.8
2016-06-10T09:46:57.225Z,23.84
2016-06-10T09:47:57.228Z,23.87
2016-06-10T09:48:57.216Z,23.78
2016-06-10T09:49:57.219Z,24.05
2016-06-10T09:50:57.049Z,24.1
2016-06-10T09:51:57.210Z,24.21
2016-06-10T09:52:57.197Z,24.51
2016-06-10T09:53:57.216Z,24.88
2016-06-10T09:54:57.187Z,25.1
2016-06-10T09:55:57.190Z,25.21
2016-06-10T09:56:57.021Z,25.25
2016-06-10T09:57:57.181Z,25.5
2016-06-10T09:58:57.168Z,25.68
2016-06-10T09:59:57.171Z,25.66
2016-06-10T10:00:57.158Z,25.75
2016-06-10T10:01:57.177Z,25.81
2016-06-10T10:02:57.164Z,25.87
2016-06-10T10:03:57.153Z,25.87
2016-06-10T10:04:57.140Z,25.98
2016-06-10T10:05:57.159Z,25.72
2016-06-10T10:06:57.146Z,25.73
2016-06-10T10:07:57.134Z,25.65
2016-06-10T10:08:57.137Z,25.48
2016-06-10T10:09:57.124Z,25.38
2016-06-10T10:10:57.127Z,25.04
2016-06-10T10:11:57.599Z,24.91
2016-06-10T10:12:57.852Z,24.69
2016-06-10T10:13:57.152Z,24.81
2016-06-10T10:14:57.108Z,24.96
2016-06-10T10:15:56.955Z,25.14
2016-06-10T10:16:56.973Z,25.25
2016-06-10T10:17:56.945Z,25.51
2016-06-10T10:18:56.948Z,25.48
2016-06-10T10:19:57.092Z,25.35
2016-06-10T10:20:57.080Z,25.22
2016-06-10T10:21:57.082Z,25.17
2016-06-10T10:22:56.914Z,25.08
2016-06-10T10:23:57.073Z,24.96
2016-06-10T10:24:57.076Z,24.89
2016-06-10T10:25:57.064Z,24.84
2016-06-10T10:26:57.801Z,24.74
2016-06-10T10:27:57.038Z,24.54
2016-06-10T10:28:57.041Z,24.53
2016-06-10T10:29:57.029Z,24.76
2016-06-10T10:30:56.875Z,24.85
2016-06-10T10:31:57.035Z,25.07
2016-06-10T10:32:57.022Z,25.21
2016-06-10T10:33:57.010Z,25.06
2016-06-10T10:34:57.013Z,24.93
2016-06-10T10:35:57.001Z,25.1
2016-06-10T10:36:56.988Z,25.41
2016-06-10T10:37:56.991Z,25.25
2016-06-10T10:38:56.822Z,25.13
2016-06-10T10:39:56.982Z,25.13
2016-06-10T10:40:56.814Z,25.14
2016-06-10T10:41:57.114Z,25.08
2016-06-10T10:42:56.960Z,25.07
2016-06-10T10:43:56.962Z,25.08
2016-06-10T10:44:56.951Z,25.01
2016-06-10T10:45:56.938Z,24.95
2016-06-10T10:46:56.940Z,25.21
2016-06-10T10:47:56.927Z,25.4
2016-06-10T10:48:56.774Z,25.6
2016-06-10T10:49:56.934Z,25.85
2016-06-10T10:50:56.937Z,26.1
2016-06-10T10:51:56.909Z,26.48
2016-06-10T10:52:56.912Z,26.7
2016-06-10T10:53:56.900Z,26.93
2016-06-10T10:54:56.903Z,27.14
2016-06-10T10:55:56.907Z,27.18
2016-06-10T10:56:56.910Z,27.55
2016-06-10T10:57:57.522Z,27.75
2016-06-10T10:58:56.900Z,27.73
2016-06-10T10:59:56.918Z,27.85
2016-06-10T11:00:56.889Z,27.95
2016-06-10T11:01:56.892Z,28.12
2016-06-10T11:02:56.896Z,28.41
2016-06-10T11:03:56.884Z,28.45
2016-06-10T11:04:56.887Z,28.51
2016-06-10T11:05:56.890Z,28.35
2016-06-10T11:06:56.877Z,28.15
2016-06-10T11:07:56.880Z,27.83
2016-06-10T11:08:56.883Z,27.78
2016-06-10T11:09:56.870Z,27.52
2016-06-10T11:10:56.734Z,27.42
2016-06-10T11:11:56.876Z,27.44
2016-06-10T11:12:56.880Z,27.37
2016-06-10T11:13:56.867Z,27.59
2016-06-10T11:14:56.870Z,27.6
2016-06-10T11:15:56.858Z,27.51
2016-06-10T11:16:56.861Z,27.37
2016-06-10T11:17:56.864Z,27.25
2016-06-10T11:18:56.852Z,27.2
2016-06-10T11:19:56.870Z,27.44
2016-06-10T11:20:56.843Z,27.39
2016-06-10T11:21:56.846Z,27.36
2016-06-10T11:22:56.692Z,27.17
2016-06-10T11:23:56.836Z,27.1
2016-06-10T11:24:56.838Z,27.11
2016-06-10T11:25:56.827Z,26.99
2016-06-10T11:26:56.830Z,26.9
2016-06-10T11:27:57.551Z,26.75
2016-06-10T11:28:56.820Z,26.48
2016-06-10T11:29:56.822Z,26.29
2016-06-10T11:30:56.810Z,26.15
2016-06-10T11:31:56.798Z,25.99
2016-06-10T11:32:56.801Z,25.93
2016-06-10T11:33:56.788Z,25.93
2016-06-10T11:34:56.791Z,25.75
2016-06-10T11:35:56.779Z,25.83
2016-06-10T11:36:56.844Z,25.88
2016-06-10T11:37:56.769Z,26
2016-06-10T11:38:56.773Z,26.1
2016-06-10T11:39:56.760Z,26.37
2016-06-10T11:40:56.762Z,26.4
2016-06-10T11:41:56.593Z,26.52
2016-06-10T11:42:56.754Z,26.36
2016-06-10T11:43:56.756Z,26.36
2016-06-10T11:44:56.782Z,26.45
2016-06-10T11:45:56.824Z,26.44
2016-06-10T11:46:56.867Z,26.29
2016-06-10T11:47:56.909Z,26.44
2016-06-10T11:48:56.926Z,26.47
2016-06-10T11:49:56.928Z,26.52
2016-06-10T11:50:56.945Z,26.37
2016-06-10T11:51:56.948Z,26.47
2016-06-10T11:52:56.965Z,26.47
2016-06-10T11:53:56.962Z,26.47
2016-06-10T11:54:56.970Z,26.62
2016-06-10T11:55:56.978Z,26.78
2016-06-10T11:56:56.971Z,27.03
2016-06-10T11:57:56.823Z,27.14
2016-06-10T11:58:56.971Z,27.14
2016-06-10T11:59:56.975Z,27.08
2016-06-10T12:00:56.980Z,27.03
2016-06-10T12:01:56.970Z,26.96
2016-06-10T12:02:56.975Z,26.92
2016-06-10T12:03:56.963Z,26.89
2016-06-10T12:04:56.966Z,27.07
2016-06-10T12:05:56.955Z,27.08
2016-06-10T12:06:56.958Z,27.05
2016-06-10T12:07:56.962Z,27.1
2016-06-10T12:08:56.949Z,26.97
2016-06-10T12:09:56.952Z,26.88
2016-06-10T12:10:56.941Z,26.75
2016-06-10T12:11:56.945Z,26.75
2016-06-10T12:12:57.729Z,26.7
2016-06-10T12:13:56.967Z,26.73
2016-06-10T12:14:56.938Z,26.83
2016-06-10T12:15:56.926Z,26.73
2016-06-10T12:16:56.928Z,26.73
2016-06-10T12:17:56.932Z,27
2016-06-10T12:18:56.935Z,27.1
2016-06-10T12:19:56.923Z,26.95
2016-06-10T12:20:56.910Z,26.92
2016-06-10T12:21:56.913Z,27.12
2016-06-10T12:22:56.900Z,27.2
2016-06-10T12:23:56.904Z,27.22
2016-06-10T12:24:56.907Z,27.22
2016-06-10T12:25:56.894Z,27.44
2016-06-10T12:26:56.912Z,27.68
2016-06-10T12:27:56.745Z,27.9
2016-06-10T12:28:56.903Z,28.01
2016-06-10T12:29:56.891Z,27.89
2016-06-10T12:30:56.894Z,27.67
2016-06-10T12:31:56.974Z,27.7
2016-06-10T12:32:56.884Z,27.75
2016-06-10T12:33:56.888Z,27.85
2016-06-10T12:34:56.875Z,28
2016-06-10T12:35:56.878Z,28.1
2016-06-10T12:36:56.865Z,28.26
2016-06-10T12:37:56.868Z,28.2
2016-06-10T12:38:56.872Z,28.15
2016-06-10T12:39:56.937Z,28.01
2016-06-10T12:40:56.862Z,28.02
2016-06-10T12:41:56.865Z,28
2016-06-10T12:42:56.712Z,28.07
2016-06-10T12:43:56.856Z,28.15
2016-06-10T12:44:56.859Z,28.11
2016-06-10T12:45:56.878Z,28.07
2016-06-10T12:46:56.865Z,28.15
2016-06-10T12:47:56.852Z,28.37
2016-06-10T12:48:56.855Z,28.45
2016-06-10T12:49:56.858Z,28.59
2016-06-10T12:50:56.862Z,28.33
2016-06-10T12:51:56.849Z,28.27
2016-06-10T12:52:56.712Z,28.04
2016-06-10T12:53:56.855Z,27.96
2016-06-10T12:54:56.842Z,27.89
2016-06-10T12:55:56.845Z,27.95